createdAt,value
2018-11-23T00:01:58.013Z,40.15
2018-11-23T00:04:00.934Z,43.33
2018-11-23T00:06:04.169Z,43.00
2018-11-23T00:08:07.134Z,43.87
2018-11-23T00:10:12.205Z,47.15
2018-11-23T00:12:15.117Z,41.13
2018-11-23T00:14:18.058Z,40.33
2018-11-23T00:16:20.968Z,47.35
2018-11-23T00:18:23.914Z,39.42
2018-11-23T00:20:28.029Z,44.98
2018-11-23T00:22:30.934Z,42.10
2018-11-23T00:24:33.885Z,46.10
2018-11-23T00:26:36.809Z,44.60
2018-11-23T00:28:39.774Z,39.45
2018-11-23T00:30:42.695Z,40.65
2018-11-23T00:32:46.009Z,47.45
2018-11-23T00:34:48.949Z,47.80
2018-11-23T00:36:52.199Z,50.83
2018-11-23T00:38:55.177Z,41.88
2018-11-23T00:40:58.450Z,49.13
2018-11-23T00:43:01.481Z,44.50
2018-11-23T00:45:06.550Z,46.18
2018-11-23T00:47:09.508Z,45.10
2018-11-23T00:49:12.398Z,41.95
2018-11-23T00:51:15.337Z,53.15
2018-11-23T00:53:18.257Z,45.05
2018-11-23T00:55:22.034Z,45.52
2018-11-23T00:57:25.021Z,49.85
2018-11-23T00:59:28.018Z,49.90
2018-11-23T01:01:36.690Z,59.25
2018-11-23T01:03:39.681Z,44.15
2018-11-23T01:05:42.664Z,49.55
2018-11-23T01:07:46.401Z,46.45
2018-11-23T01:09:49.405Z,52.25
2018-11-23T01:11:53.407Z,50.85
2018-11-23T01:14:02.541Z,50.38
2018-11-23T01:16:12.010Z,44.98
2018-11-23T01:18:21.145Z,47.23
2018-11-23T01:20:30.182Z,53.68
2018-11-23T01:22:40.110Z,48.08
2018-11-23T01:24:49.466Z,51.90
2018-11-23T01:26:58.726Z,62.30
2018-11-23T01:29:07.874Z,54.48
2018-11-23T01:31:16.857Z,55.92
2018-11-23T01:33:26.066Z,50.78
2018-11-23T01:35:35.320Z,54.05
2018-11-23T01:37:44.389Z,55.55
2018-11-23T01:39:53.649Z,55.78
2018-11-23T01:42:03.193Z,55.23
2018-11-23T01:44:12.245Z,61.25
2018-11-23T01:46:21.322Z,56.30
2018-11-23T01:48:30.521Z,63.83
2018-11-23T01:50:39.555Z,61.30
2018-11-23T01:52:49.322Z,67.87
2018-11-23T01:54:58.420Z,56.80
2018-11-23T01:57:07.375Z,60.15
2018-11-23T01:59:16.525Z,57.35
2018-11-23T02:01:25.709Z,56.28
2018-11-23T02:03:34.843Z,55.35
2018-11-23T02:05:44.384Z,62.48
2018-11-23T02:07:53.507Z,55.38
2018-11-23T02:10:02.700Z,65.72
2018-11-23T02:12:11.871Z,56.30
2018-11-23T02:14:21.077Z,66.12
2018-11-23T02:16:29.977Z,64.77
2018-11-23T02:18:39.040Z,69.35
2018-11-23T02:20:48.161Z,65.57
2018-11-23T02:22:57.394Z,71.65
2018-11-23T02:25:06.694Z,65.92
2018-11-23T02:27:16.176Z,69.62
2018-11-23T02:29:25.272Z,67.50
2018-11-23T02:31:36.773Z,74.10
2018-11-23T02:33:45.894Z,60.50
2018-11-23T02:35:55.005Z,66.92
2018-11-23T02:38:04.108Z,65.50
2018-11-23T02:40:14.598Z,63.70
2018-11-23T02:42:23.836Z,67.17
2018-11-23T02:44:32.872Z,60.67
2018-11-23T02:46:42.009Z,64.67
2018-11-23T02:48:50.985Z,65.78
2018-11-23T02:51:00.208Z,62.95
2018-11-23T02:53:09.283Z,67.65
2018-11-23T02:55:19.153Z,57.23
2018-11-23T02:57:28.319Z,62.17
2018-11-23T02:59:37.419Z,73.15
2018-11-23T03:01:46.503Z,78.95
2018-11-23T03:03:55.480Z,61.42
2018-11-23T03:06:04.545Z,64.58
2018-11-23T03:08:13.542Z,67.92
2018-11-23T03:10:22.779Z,66.00
2018-11-23T03:12:31.863Z,64.58
2018-11-23T03:14:40.844Z,65.47
2018-11-23T03:16:50.034Z,73.28
2018-11-23T03:18:58.969Z,79.50
2018-11-23T03:21:08.017Z,71.57
2018-11-23T03:23:17.180Z,78.80
2018-11-23T03:25:26.217Z,73.37
2018-11-23T03:27:35.244Z,66.00
2018-11-23T03:29:44.349Z,69.67
2018-11-23T03:31:53.672Z,80.55
2018-11-23T03:34:02.737Z,65.17
2018-11-23T03:36:11.818Z,74.97
2018-11-23T03:38:21.055Z,86.50
2018-11-23T03:40:30.036Z,59.75
2018-11-23T03:42:39.220Z,74.53
2018-11-23T03:44:48.439Z,70.08
2018-11-23T03:46:57.727Z,74.82
2018-11-23T03:49:06.728Z,82.67
2018-11-23T03:51:16.215Z,82.25
2018-11-23T03:53:25.252Z,73.20
2018-11-23T03:55:34.265Z,65.08
2018-11-23T03:57:43.587Z,83.60
2018-11-23T03:59:52.653Z,78.45
2018-11-23T04:02:01.740Z,68.62
2018-11-23T04:04:10.827Z,68.75
2018-11-23T04:06:19.976Z,69.50
2018-11-23T04:08:29.003Z,69.05
2018-11-23T04:10:38.172Z,70.57
2018-11-23T04:12:47.688Z,83.70
2018-11-23T04:14:56.796Z,76.92
2018-11-23T04:17:05.913Z,71.00
2018-11-23T04:19:15.068Z,76.00
2018-11-23T04:21:24.276Z,72.70
2018-11-23T04:23:33.632Z,79.15
2018-11-23T04:25:43.064Z,81.05
2018-11-23T04:27:52.309Z,80.30
2018-11-23T04:30:01.330Z,80.85
2018-11-23T04:32:10.755Z,92.78
2018-11-23T04:34:19.883Z,80.60
2018-11-23T04:36:29.007Z,72.00
2018-11-23T04:38:38.255Z,77.45
2018-11-23T04:40:47.308Z,79.82
2018-11-23T04:42:57.024Z,86.10
2018-11-23T04:45:06.726Z,81.80
2018-11-23T04:47:15.936Z,84.15
2018-11-23T04:49:25.088Z,78.25
2018-11-23T04:51:34.195Z,77.47
2018-11-23T04:53:43.380Z,84.70
2018-11-23T04:55:52.727Z,85.62
2018-11-23T04:58:01.895Z,79.35
2018-11-23T05:00:14.048Z,93.17
2018-11-23T05:02:23.309Z,83.67
2018-11-23T05:04:32.412Z,90.60
2018-11-23T05:06:41.862Z,70.12
2018-11-23T05:08:50.984Z,78.12
2018-11-23T05:11:00.074Z,73.02
2018-11-23T05:13:09.274Z,77.03
2018-11-23T05:15:19.029Z,79.70
2018-11-23T05:17:28.132Z,73.95
2018-11-23T05:19:37.121Z,72.17
2018-11-23T05:21:46.447Z,77.32
2018-11-23T05:23:55.656Z,86.35
2018-11-23T05:26:05.491Z,85.77
2018-11-23T05:28:14.566Z,84.97
2018-11-23T05:30:23.494Z,86.90
2018-11-23T05:32:32.872Z,76.77
2018-11-23T05:34:42.083Z,85.83
2018-11-23T05:36:51.277Z,80.97
2018-11-23T05:39:00.355Z,77.32
2018-11-23T05:41:09.477Z,80.42
2018-11-23T05:43:18.591Z,82.75
2018-11-23T05:45:27.769Z,89.77
2018-11-23T05:47:37.104Z,81.75
2018-11-23T05:49:46.190Z,82.70
2018-11-23T05:51:55.371Z,82.50
2018-11-23T05:54:04.761Z,87.65
2018-11-23T05:56:14.007Z,81.42
2018-11-23T05:58:23.145Z,82.57
2018-11-23T06:00:32.955Z,73.57
2018-11-23T06:02:42.397Z,93.35
2018-11-23T06:04:51.609Z,79.00
2018-11-23T06:07:00.748Z,88.07
2018-11-23T06:09:09.970Z,92.08
2018-11-23T06:11:19.279Z,85.25
2018-11-23T06:13:28.380Z,94.17
2018-11-23T06:15:40.443Z,86.15
2018-11-23T06:17:47.415Z,81.87
2018-11-23T06:19:56.737Z,85.05
2018-11-23T06:22:05.982Z,81.63
2018-11-23T06:24:15.181Z,77.05
2018-11-23T06:26:26.454Z,95.92
2018-11-23T06:28:35.646Z,86.75
2018-11-23T06:30:44.835Z,84.65
2018-11-23T06:33:11.389Z,82.70
2018-11-23T06:35:20.505Z,82.05
2018-11-23T06:37:29.622Z,105.80
2018-11-23T06:39:38.934Z,86.85
2018-11-23T06:41:48.155Z,92.15
2018-11-23T06:43:57.469Z,89.20
2018-11-23T06:46:08.845Z,92.90
2018-11-23T06:48:17.895Z,82.70
2018-11-23T06:50:27.120Z,101.10
2018-11-23T06:52:36.587Z,84.77
2018-11-23T06:54:45.872Z,90.55
2018-11-23T06:56:54.903Z,106.95
2018-11-23T06:59:04.379Z,93.62
2018-11-23T07:01:13.599Z,98.03
2018-11-23T07:03:22.718Z,99.95
2018-11-23T07:05:32.365Z,83.97
2018-11-23T07:07:41.488Z,85.83
2018-11-23T07:09:50.596Z,106.75
2018-11-23T07:12:00.099Z,106.72
2018-11-23T07:14:08.347Z,101.78
2018-11-23T07:16:11.677Z,102.93
2018-11-23T07:18:14.720Z,89.10
2018-11-23T07:20:17.696Z,91.87
2018-11-23T07:22:20.839Z,83.58
2018-11-23T07:24:24.010Z,94.15
2018-11-23T07:26:26.967Z,91.57
2018-11-23T07:28:29.932Z,89.50
2018-11-23T07:30:32.925Z,87.92
2018-11-23T07:32:35.944Z,92.80
2018-11-23T07:34:39.100Z,101.05
2018-11-23T07:36:42.176Z,90.15
2018-11-23T07:38:45.198Z,106.25
2018-11-23T07:41:05.478Z,85.30
2018-11-23T07:43:08.999Z,90.12
2018-11-23T07:45:11.964Z,99.17
2018-11-23T07:47:15.177Z,102.27
2018-11-23T07:49:18.195Z,87.10
2018-11-23T07:51:21.188Z,100.10
2018-11-23T07:53:24.241Z,102.02
2018-11-23T07:55:27.635Z,93.45
2018-11-23T07:57:30.653Z,94.40
2018-11-23T07:59:33.997Z,94.70
2018-11-23T08:01:37.420Z,74.67
2018-11-23T08:03:40.450Z,100.35
2018-11-23T08:05:43.468Z,84.87
2018-11-23T08:07:46.522Z,90.00
2018-11-23T08:09:49.564Z,92.82
2018-11-23T08:11:53.055Z,77.08
2018-11-23T08:13:56.512Z,90.00
2018-11-23T08:15:59.644Z,83.12
2018-11-23T08:18:02.630Z,102.62
2018-11-23T08:20:07.295Z,87.33
2018-11-23T08:22:10.465Z,83.62
2018-11-23T08:24:13.591Z,84.58
2018-11-23T08:26:16.958Z,82.50
2018-11-23T08:28:20.004Z,78.55
2018-11-23T08:30:24.483Z,89.20
2018-11-23T08:32:27.904Z,94.87
2018-11-23T08:34:30.900Z,71.92
2018-11-23T08:36:33.939Z,72.47
2018-11-23T08:38:36.990Z,85.38
2018-11-23T08:40:40.027Z,83.80
2018-11-23T08:42:43.704Z,92.20
2018-11-23T08:44:47.201Z,78.95
2018-11-23T08:46:50.182Z,84.25
2018-11-23T08:48:53.154Z,91.22
2018-11-23T08:50:56.391Z,88.35
2018-11-23T08:52:59.509Z,76.33
2018-11-23T08:55:02.528Z,91.97
2018-11-23T08:57:05.619Z,79.25
2018-11-23T08:59:08.657Z,86.37
2018-11-23T09:01:11.701Z,87.92
2018-11-23T09:03:14.824Z,74.47
2018-11-23T09:05:18.085Z,76.72
2018-11-23T09:07:21.263Z,83.97
2018-11-23T09:09:24.258Z,92.17
2018-11-23T09:11:27.542Z,86.67
2018-11-23T09:13:30.943Z,86.55
2018-11-23T09:15:33.884Z,89.67
2018-11-23T09:17:36.878Z,75.65
2018-11-23T09:19:39.874Z,84.83
2018-11-23T09:21:42.857Z,73.67
2018-11-23T09:23:45.849Z,75.75
2018-11-23T09:25:48.902Z,72.50
2018-11-23T09:27:51.989Z,81.67
2018-11-23T09:29:54.995Z,72.40
2018-11-23T09:31:58.140Z,77.22
2018-11-23T09:34:01.104Z,100.85
2018-11-23T09:36:04.192Z,89.72
2018-11-23T09:38:07.191Z,75.40
2018-11-23T09:40:13.196Z,73.92
2018-11-23T09:42:16.224Z,77.00
2018-11-23T09:44:19.312Z,75.00
2018-11-23T09:46:22.337Z,73.57
2018-11-23T09:48:25.297Z,75.28
2018-11-23T09:50:28.600Z,87.57
2018-11-23T09:52:31.603Z,86.85
2018-11-23T09:54:34.575Z,76.50
2018-11-23T09:56:37.573Z,81.80
2018-11-23T09:58:43.630Z,71.77
2018-11-23T10:00:43.648Z,64.53
2018-11-23T10:02:47.827Z,76.33
2018-11-23T10:04:51.274Z,78.52
2018-11-23T10:06:54.327Z,74.85
2018-11-23T10:08:57.326Z,76.12
2018-11-23T10:11:00.463Z,76.53
2018-11-23T10:13:03.452Z,68.02
2018-11-23T10:15:07.957Z,68.62
2018-11-23T10:17:11.171Z,77.40
2018-11-23T10:19:28.216Z,70.17
2018-11-23T10:21:31.229Z,70.30
2018-11-23T10:23:34.224Z,69.47
2018-11-23T10:25:37.250Z,66.50
2018-11-23T10:27:40.981Z,80.38
2018-11-23T10:29:43.955Z,63.60
2018-11-23T10:31:47.353Z,68.97
2018-11-23T10:33:50.918Z,72.95
2018-11-23T10:35:53.939Z,72.53
2018-11-23T10:37:58.441Z,64.82
2018-11-23T10:40:01.605Z,66.97
2018-11-23T10:42:04.789Z,64.82
2018-11-23T10:44:07.755Z,65.95
2018-11-23T10:46:10.787Z,78.15
2018-11-23T10:48:13.849Z,67.80
2018-11-23T10:50:19.151Z,58.60
2018-11-23T10:52:22.221Z,62.80
2018-11-23T10:54:25.277Z,69.95
2018-11-23T10:56:28.284Z,65.67
2018-11-23T10:58:31.273Z,76.67
2018-11-23T11:00:40.071Z,62.08
2018-11-23T11:02:44.299Z,71.57
2018-11-23T11:04:57.777Z,65.67
2018-11-23T11:07:06.813Z,64.17
2018-11-23T11:09:10.587Z,60.25
2018-11-23T11:11:14.051Z,64.03
2018-11-23T11:13:16.913Z,59.83
2018-11-23T11:15:20.039Z,68.57
2018-11-23T11:17:23.079Z,69.90
2018-11-23T11:19:26.100Z,68.02
2018-11-23T11:21:29.101Z,57.53
2018-11-23T11:23:38.279Z,54.15
2018-11-23T11:25:41.278Z,65.53
2018-11-23T11:27:44.260Z,54.63
2018-11-23T11:29:48.036Z,66.12
2018-11-23T11:31:51.043Z,58.83
2018-11-23T11:33:53.991Z,63.73
2018-11-23T11:35:57.009Z,66.35
2018-11-23T11:38:00.147Z,61.93
2018-11-23T11:40:03.199Z,59.10
2018-11-23T11:42:06.397Z,66.57
2018-11-23T11:44:09.455Z,66.62
2018-11-23T11:46:12.683Z,59.98
2018-11-23T11:48:15.829Z,65.30
2018-11-23T11:50:18.998Z,61.80
2018-11-23T11:52:21.977Z,62.90
2018-11-23T11:54:24.936Z,71.35
2018-11-23T11:56:27.968Z,69.77
2018-11-23T11:58:30.991Z,61.40
2018-11-23T12:00:34.383Z,60.48
2018-11-23T12:02:37.796Z,62.10
2018-11-23T12:04:40.809Z,74.50
2018-11-23T12:06:43.809Z,57.25
2018-11-23T12:08:46.823Z,62.17
2018-11-23T12:10:49.787Z,67.15
2018-11-23T12:12:52.871Z,64.80
2018-11-23T12:14:56.171Z,57.80
2018-11-23T12:16:59.163Z,63.17
2018-11-23T12:19:02.265Z,70.52
2018-11-23T12:21:05.408Z,60.85
2018-11-23T12:23:08.602Z,57.03
2018-11-23T12:25:11.640Z,68.47
2018-11-23T12:27:14.713Z,61.20
2018-11-23T12:29:17.720Z,52.63
2018-11-23T12:31:20.827Z,58.50
2018-11-23T12:33:23.831Z,73.63
2018-11-23T12:35:26.757Z,62.53
2018-11-23T12:37:29.720Z,62.43
2018-11-23T12:39:33.111Z,74.67
2018-11-23T12:41:36.096Z,65.12
2018-11-23T12:43:39.049Z,70.30
2018-11-23T12:45:42.368Z,70.57
2018-11-23T12:47:45.539Z,67.17
2018-11-23T12:49:48.580Z,63.13
2018-11-23T12:51:51.571Z,59.17
2018-11-23T12:53:54.564Z,58.30
2018-11-23T12:55:57.555Z,63.00
2018-11-23T12:58:00.516Z,59.50
2018-11-23T13:00:04.973Z,71.90
2018-11-23T13:02:07.956Z,68.40
2018-11-23T13:04:11.093Z,60.20
2018-11-23T13:06:14.113Z,61.93
2018-11-23T13:08:17.253Z,60.27
2018-11-23T13:10:20.618Z,76.40
2018-11-23T13:12:23.825Z,73.00
2018-11-23T13:14:26.925Z,61.97
2018-11-23T13:16:30.051Z,70.00
2018-11-23T13:18:33.154Z,68.57
2018-11-23T13:20:36.210Z,65.67
2018-11-23T13:22:39.506Z,64.70
2018-11-23T13:24:42.446Z,66.07
2018-11-23T13:26:45.399Z,69.60
2018-11-23T13:28:48.328Z,73.50
2018-11-23T13:30:51.457Z,65.03
2018-11-23T13:32:54.541Z,62.50
2018-11-23T13:34:57.747Z,59.53
2018-11-23T13:37:00.881Z,70.80
2018-11-23T13:39:06.145Z,68.50
2018-11-23T13:41:09.179Z,64.10
2018-11-23T13:43:12.330Z,63.20
2018-11-23T13:45:20.109Z,71.03
2018-11-23T13:47:23.016Z,67.20
2018-11-23T13:49:26.195Z,63.10
2018-11-23T13:51:29.232Z,67.10
2018-11-23T13:53:32.217Z,77.73
2018-11-23T13:55:35.165Z,63.63
2018-11-23T13:57:38.466Z,66.23
2018-11-23T13:59:41.578Z,64.47
2018-11-23T14:01:44.668Z,69.90
2018-11-23T14:03:47.849Z,72.90
2018-11-23T14:05:50.986Z,71.73
2018-11-23T14:07:55.597Z,72.43
2018-11-23T14:09:58.810Z,68.47
2018-11-23T14:12:01.991Z,63.53
2018-11-23T14:14:05.338Z,75.40
2018-11-23T14:16:08.818Z,62.57
2018-11-23T14:18:11.833Z,75.17
2018-11-23T14:20:15.749Z,67.50
2018-11-23T14:22:19.109Z,73.30
2018-11-23T14:24:22.106Z,75.23
2018-11-23T14:26:25.162Z,68.53
2018-11-23T14:28:28.353Z,78.10
2018-11-23T14:30:32.817Z,76.10
2018-11-23T14:32:35.914Z,63.33
2018-11-23T14:34:39.042Z,67.97
2018-11-23T14:36:42.178Z,77.97
2018-11-23T14:38:45.319Z,69.10
2018-11-23T14:40:48.450Z,57.33
2018-11-23T14:42:52.636Z,62.77
2018-11-23T14:44:55.786Z,83.93
2018-11-23T14:46:59.314Z,70.60
2018-11-23T14:49:02.462Z,69.73
2018-11-23T14:51:05.621Z,64.50
2018-11-23T14:53:09.068Z,71.43
2018-11-23T14:55:12.282Z,80.03
2018-11-23T14:57:15.337Z,60.80
2018-11-23T14:59:18.814Z,72.73
2018-11-23T15:01:21.837Z,71.67
2018-11-23T15:03:24.763Z,84.13
2018-11-23T15:05:28.291Z,69.67
2018-11-23T15:07:31.246Z,72.07
2018-11-23T15:09:34.290Z,68.97
2018-11-23T15:11:37.825Z,72.60
2018-11-23T15:13:40.893Z,81.00
2018-11-23T15:15:43.974Z,75.87
2018-11-23T15:17:47.976Z,72.67
2018-11-23T15:19:51.119Z,73.27
2018-11-23T15:21:54.102Z,63.67
2018-11-23T15:23:57.329Z,78.77
2018-11-23T15:26:00.076Z,68.27
2018-11-23T15:28:03.172Z,67.90
2018-11-23T15:30:14.691Z,66.10
2018-11-23T15:32:18.148Z,70.20
2018-11-23T15:34:21.218Z,63.13
2018-11-23T15:36:24.147Z,68.30
2018-11-23T15:38:27.086Z,64.87
2018-11-23T15:40:31.606Z,76.43
2018-11-23T15:42:34.668Z,73.77
2018-11-23T15:44:37.858Z,76.87
2018-11-23T15:46:40.875Z,83.37
2018-11-23T15:48:43.769Z,69.43
2018-11-23T15:50:46.867Z,67.50
2018-11-23T15:52:50.353Z,81.40
2018-11-23T15:54:53.249Z,75.87
2018-11-23T15:56:56.229Z,77.93
2018-11-23T15:58:59.338Z,75.17
2018-11-23T16:01:02.565Z,70.47
2018-11-23T16:03:07.861Z,69.70
2018-11-23T16:05:11.928Z,64.07
2018-11-23T16:07:14.997Z,68.57
2018-11-23T16:09:17.950Z,76.70
2018-11-23T16:11:20.857Z,81.43
2018-11-23T16:13:23.803Z,78.07
2018-11-23T16:15:30.502Z,81.37
2018-11-23T16:17:33.413Z,73.33
2018-11-23T16:19:36.494Z,65.37
2018-11-23T16:21:39.507Z,73.73
2018-11-23T16:23:42.599Z,82.22
2018-11-23T16:25:46.265Z,72.07
2018-11-23T16:27:50.968Z,70.00
2018-11-23T16:29:54.137Z,75.23
2018-11-23T16:31:57.914Z,73.10
2018-11-23T16:34:00.878Z,71.63
2018-11-23T16:36:03.814Z,69.40
2018-11-23T16:38:10.201Z,78.80
2018-11-23T16:40:14.632Z,73.20
2018-11-23T16:42:17.682Z,81.93
2018-11-23T16:44:20.621Z,69.00
2018-11-23T16:46:23.554Z,70.83
2018-11-23T16:48:26.481Z,89.70
2018-11-23T16:50:29.930Z,90.63
2018-11-23T16:52:33.066Z,70.63
2018-11-23T16:54:36.138Z,82.80
2018-11-23T16:56:43.707Z,74.23
2018-11-23T16:58:46.806Z,82.37
2018-11-23T17:00:49.922Z,65.40
2018-11-23T17:02:54.122Z,66.17
2018-11-23T17:04:57.154Z,79.40
2018-11-23T17:07:00.108Z,85.20
2018-11-23T17:09:03.698Z,83.90
2018-11-23T17:11:06.621Z,77.97
2018-11-23T17:13:09.581Z,66.55
2018-11-23T17:15:15.052Z,68.77
2018-11-23T17:17:18.086Z,70.97
2018-11-23T17:19:21.167Z,75.37
2018-11-23T17:21:24.125Z,75.93
2018-11-23T17:23:27.069Z,66.93
2018-11-23T17:25:31.373Z,68.20
2018-11-23T17:27:34.377Z,84.90
2018-11-23T17:29:37.374Z,70.70
2018-11-23T17:31:40.477Z,79.03
2018-11-23T17:33:43.549Z,82.67
2018-11-23T17:35:46.650Z,77.60
2018-11-23T17:37:49.708Z,73.17
2018-11-23T17:39:52.710Z,70.13
2018-11-23T17:41:55.802Z,74.50
2018-11-23T17:43:58.910Z,75.13
2018-11-23T17:46:01.979Z,72.13
2018-11-23T17:48:05.686Z,80.83
2018-11-23T17:50:12.030Z,65.67
2018-11-23T17:52:14.985Z,70.70
2018-11-23T17:54:17.901Z,78.52
2018-11-23T17:56:20.886Z,69.75
2018-11-23T17:58:23.906Z,83.92
2018-11-23T18:00:38.491Z,70.08
2018-11-23T18:02:34.084Z,73.00
2018-11-23T18:04:37.146Z,69.15
2018-11-23T18:06:40.633Z,77.60
2018-11-23T18:08:43.663Z,69.73
2018-11-23T18:10:46.591Z,72.72
2018-11-23T18:12:49.907Z,77.37
2018-11-23T18:14:52.869Z,78.67
2018-11-23T18:16:55.781Z,81.67
2018-11-23T18:18:58.906Z,81.08
2018-11-23T18:21:02.017Z,74.10
2018-11-23T18:23:05.967Z,76.02
2018-11-23T18:25:12.526Z,73.55
2018-11-23T18:27:15.522Z,67.62
2018-11-23T18:29:18.411Z,73.90
2018-11-23T18:31:21.410Z,76.75
2018-11-23T18:33:24.366Z,85.22
2018-11-23T18:35:27.414Z,70.40
2018-11-23T18:37:30.496Z,71.62
2018-11-23T18:39:33.441Z,68.02
2018-11-23T18:41:36.818Z,67.37
2018-11-23T18:43:39.879Z,76.37
2018-11-23T18:45:42.801Z,75.37
2018-11-23T18:47:45.797Z,88.85
2018-11-23T18:49:48.878Z,72.10
2018-11-23T18:51:51.894Z,90.30
2018-11-23T18:53:54.974Z,84.15
2018-11-23T18:55:59.520Z,92.30
2018-11-23T18:58:02.696Z,78.55
2018-11-23T19:00:10.301Z,94.25
2018-11-23T19:02:13.309Z,88.35
2018-11-23T19:04:16.278Z,83.35
2018-11-23T19:06:19.453Z,83.03
2018-11-23T19:08:22.566Z,81.63
2018-11-23T19:10:25.703Z,81.95
2018-11-23T19:12:28.812Z,85.25
2018-11-23T19:14:38.047Z,95.97
2018-11-23T19:16:47.187Z,89.87
2018-11-23T19:18:56.410Z,85.15
2018-11-23T19:21:05.712Z,88.52
2018-11-23T19:23:14.835Z,92.37
2018-11-23T19:25:24.076Z,83.50
2018-11-23T19:27:33.468Z,91.47
2018-11-23T19:29:42.735Z,79.32
2018-11-23T19:31:51.943Z,81.05
2018-11-23T19:34:01.061Z,69.47
2018-11-23T19:36:10.378Z,72.50
2018-11-23T19:38:19.503Z,79.40
2018-11-23T19:40:29.059Z,76.85
2018-11-23T19:42:38.279Z,62.65
2018-11-23T19:44:48.048Z,65.55
2018-11-23T19:46:57.107Z,70.83
2018-11-23T19:49:06.254Z,80.20
2018-11-23T19:51:16.328Z,80.70
2018-11-23T19:53:24.451Z,75.47
2018-11-23T19:55:33.520Z,78.90
2018-11-23T19:57:42.791Z,85.95
2018-11-23T19:59:51.948Z,87.92
2018-11-23T20:02:01.162Z,86.02
2018-11-23T20:04:10.357Z,81.20
2018-11-23T20:06:19.754Z,76.28
2018-11-23T20:08:28.787Z,80.70
2018-11-23T20:10:37.931Z,70.67
2018-11-23T20:12:48.848Z,76.07
2018-11-23T20:14:58.127Z,105.52
2018-11-23T20:17:07.215Z,87.92
2018-11-23T20:19:16.508Z,88.75
2018-11-23T20:21:25.720Z,131.15
2018-11-23T20:23:35.000Z,141.80
2018-11-23T20:25:44.131Z,101.67
2018-11-23T20:27:53.618Z,147.20
2018-11-23T20:30:03.208Z,84.25
2018-11-23T20:32:12.474Z,125.35
2018-11-23T20:34:21.864Z,200.80
2018-11-23T20:36:31.347Z,116.45
2018-11-23T20:38:40.758Z,88.92
2018-11-23T20:40:49.884Z,71.87
2018-11-23T20:42:59.155Z,103.10
2018-11-23T20:45:10.456Z,89.80
2018-11-23T20:47:19.683Z,75.65
2018-11-23T20:49:28.869Z,83.47
2018-11-23T20:51:38.023Z,86.37
2018-11-23T20:53:47.051Z,80.15
2018-11-23T20:55:56.260Z,70.52
2018-11-23T20:58:05.696Z,78.42
2018-11-23T21:00:17.382Z,76.62
2018-11-23T21:02:26.579Z,71.50
2018-11-23T21:04:35.662Z,84.00
2018-11-23T21:06:44.907Z,104.23
2018-11-23T21:08:54.239Z,64.75
2018-11-23T21:11:03.590Z,115.85
2018-11-23T21:13:12.752Z,79.17
2018-11-23T21:15:24.378Z,68.42
2018-11-23T21:17:33.451Z,107.40
2018-11-23T21:19:42.672Z,91.17
2018-11-23T21:21:51.821Z,103.25
2018-11-23T21:24:00.869Z,95.07
2018-11-23T21:26:10.322Z,111.97
2018-11-23T21:28:19.557Z,118.80
2018-11-23T21:30:28.742Z,107.07
2018-11-23T21:32:38.208Z,69.92
2018-11-23T21:34:47.478Z,71.22
2018-11-23T21:36:56.636Z,88.90
2018-11-23T21:39:13.713Z,76.47
2018-11-23T21:41:18.534Z,102.78
2018-11-23T21:43:28.000Z,50.55
2018-11-23T21:45:37.094Z,64.82
2018-11-23T21:47:46.199Z,79.42
2018-11-23T21:49:55.248Z,44.93
2018-11-23T21:52:04.900Z,69.92
2018-11-23T21:54:14.061Z,68.50
2018-11-23T21:56:23.219Z,61.60
2018-11-23T22:00:46.419Z,97.57
2018-11-23T22:02:55.686Z,51.98
2018-11-23T22:05:05.528Z,66.10
2018-11-23T22:07:14.512Z,48.83
2018-11-23T22:09:23.623Z,68.90
2018-11-23T22:11:32.743Z,57.48
2018-11-23T22:13:42.032Z,70.70
2018-11-23T22:15:51.367Z,62.53
2018-11-23T22:18:00.528Z,69.65
2018-11-23T22:20:11.502Z,65.80
2018-11-23T22:22:20.559Z,54.50
2018-11-23T22:24:29.775Z,46.80
2018-11-23T22:26:38.807Z,51.63
2018-11-23T22:28:47.884Z,58.70
2018-11-23T22:30:56.992Z,78.87
2018-11-23T22:33:06.204Z,54.63
2018-11-23T22:35:15.444Z,71.82
2018-11-23T22:37:24.664Z,70.57
2018-11-23T22:39:34.282Z,69.80
2018-11-23T22:41:43.573Z,47.75
2018-11-23T22:43:52.675Z,89.30
2018-11-23T22:46:01.784Z,60.17
2018-11-23T22:48:10.982Z,49.42
2018-11-23T22:50:22.031Z,46.45
2018-11-23T22:52:31.183Z,70.95
2018-11-23T22:54:40.479Z,47.20
2018-11-23T22:56:49.509Z,57.15
2018-11-23T22:58:59.282Z,43.63
2018-11-23T23:01:08.636Z,44.10
2018-11-23T23:03:17.704Z,48.08
2018-11-23T23:05:27.190Z,105.72
2018-11-23T23:07:36.323Z,90.70
2018-11-23T23:09:45.457Z,47.20
2018-11-23T23:11:54.565Z,56.23
2018-11-23T23:14:03.873Z,44.70
2018-11-23T23:16:13.031Z,53.15
2018-11-23T23:18:22.132Z,47.75
2018-11-23T23:20:31.278Z,53.28
2018-11-23T23:22:40.537Z,60.48
2018-11-23T23:24:49.679Z,91.80
2018-11-23T23:26:58.844Z,44.45
2018-11-23T23:29:08.039Z,44.65
2018-11-23T23:31:17.406Z,44.85
2018-11-23T23:33:26.725Z,53.28
2018-11-23T23:35:36.009Z,64.10
2018-11-23T23:37:45.407Z,55.90
2018-11-23T23:39:54.732Z,69.55
2018-11-23T23:42:03.897Z,41.77
2018-11-23T23:44:12.880Z,49.50
2018-11-23T23:46:22.304Z,48.00
2018-11-23T23:48:31.260Z,63.02
2018-11-23T23:50:40.484Z,65.42
2018-11-23T23:52:50.773Z,71.37
2018-11-23T23:54:59.935Z,102.53
2018-11-23T23:57:09.078Z,128.78
2018-11-23T23:59:18.204Z,56.13
